Time;durP1;ratioP1;P1;durP2;ratioP2;P2;SDS_P1;SDS_P2;PMS_P1;PMS_P2;Temp;Humidity;BMP_temperature;BMP_pressure;BME280_temperature;BME280_humidity;BME280_pressure;Samples;Min_cycle;Max_cycle;Signal;HPM_P1;HPM_P2
2021/07/11 00:00:21;;;;;;;15.95;10.77;;;14.30;99.90;;;;;;5037497;28;20447;-78
2021/07/11 00:02:47;;;;;;;13.32;9.32;;;14.30;99.90;;;;;;5053507;28;20875;-78
2021/07/11 00:05:15;;;;;;;15.77;10.65;;;14.30;99.90;;;;;;5041181;28;20049;-78
2021/07/11 00:07:41;;;;;;;13.55;9.93;;;14.30;99.90;;;;;;5036710;28;20037;-78
2021/07/11 00:10:08;;;;;;;14.65;10.65;;;14.20;99.90;;;;;;5042220;28;20121;-78
2021/07/11 00:12:34;;;;;;;12.77;9.82;;;14.20;99.90;;;;;;5038969;28;20450;-78
2021/07/11 00:15:00;;;;;;;16.23;9.82;;;14.10;99.90;;;;;;5033142;28;20182;-77
2021/07/11 00:17:26;;;;;;;12.80;9.85;;;14.10;99.90;;;;;;5044715;28;20079;-78
2021/07/11 00:19:52;;;;;;;16.05;10.30;;;14.10;99.90;;;;;;5038512;28;20712;-78
2021/07/11 00:22:18;;;;;;;;;;;14.00;99.90;;;;;;5043708;28;20123;-78
2021/07/11 00:24:46;;;;;;;14.65;10.27;;;14.00;99.90;;;;;;5045222;28;20008;-78
2021/07/11 00:27:12;;;;;;;13.13;9.27;;;14.00;99.90;;;;;;5041320;28;20029;-78
2021/07/11 00:29:37;;;;;;;12.45;8.80;;;14.00;99.90;;;;;;5027922;28;20049;-78
2021/07/11 00:32:03;;;;;;;;;;;14.00;99.90;;;;;;5048695;28;20387;-78
2021/07/11 00:34:29;;;;;;;14.50;10.35;;;14.00;99.90;;;;;;5036795;28;19983;-78
2021/07/11 00:36:55;;;;;;;15.18;9.45;;;14.10;99.90;;;;;;5037011;28;20045;-78
2021/07/11 00:39:21;;;;;;;;;;;14.00;99.90;;;;;;5049152;28;20041;-77
2021/07/11 00:41:47;;;;;;;14.85;10.45;;;14.00;99.90;;;;;;5054328;28;19931;-78
2021/07/11 00:44:12;;;;;;;13.77;10.18;;;13.90;99.90;;;;;;5052891;28;20037;-78
2021/07/11 00:46:38;;;;;;;15.88;10.80;;;13.90;99.90;;;;;;5045833;28;20069;-78
2021/07/11 00:49:06;;;;;;;15.85;10.85;;;13.90;99.90;;;;;;5039720;28;20046;-78
2021/07/11 00:51:33;;;;;;;15.05;10.10;;;13.90;99.90;;;;;;5044135;28;20032;-79
2021/07/11 00:53:59;;;;;;;14.25;9.98;;;13.80;99.90;;;;;;5043358;28;20045;-79
2021/07/11 00:56:27;;;;;;;15.82;10.75;;;13.80;99.90;;;;;;5049508;28;20124;-79
2021/07/11 00:58:55;;;;;;;16.63;10.70;;;13.80;99.90;;;;;;5054328;28;20056;-79
2021/07/11 01:01:34;;;;;;;14.07;10.38;;;13.70;99.90;;;;;;5053405;28;20044;-79
2021/07/11 01:04:04;;;;;;;16.08;11.45;;;13.70;99.90;;;;;;5035073;28;20038;-79
2021/07/11 01:06:37;;;;;;;14.85;10.35;;;13.70;99.90;;;;;;5039444;28;20128;-79
2021/07/11 01:09:07;;;;;;;15.35;10.82;;;13.70;99.90;;;;;;5041632;28;20056;-79
2021/07/11 01:11:41;;;;;;;14.75;10.15;;;13.70;99.90;;;;;;5046339;28;20041;-79
2021/07/11 01:14:08;;;;;;;15.02;10.93;;;13.70;99.90;;;;;;5023884;28;20109;-79
2021/07/11 01:16:36;;;;;;;14.10;10.48;;;13.70;99.90;;;;;;5041661;28;20053;-79
2021/07/11 01:19:10;;;;;;;13.93;10.38;;;13.70;99.90;;;;;;5047685;28;20033;-80
2021/07/11 01:21:45;;;;;;;17.20;10.75;;;13.70;99.90;;;;;;5038845;28;20495;-79
2021/07/11 01:24:19;;;;;;;14.45;10.98;;;13.60;99.90;;;;;;5039750;28;20037;-79
2021/07/11 01:26:46;;;;;;;17.13;11.95;;;13.60;99.90;;;;;;5044385;28;20106;-79
2021/07/11 01:29:13;;;;;;;16.45;10.77;;;13.60;99.90;;;;;;5041325;28;20056;-79
2021/07/11 01:31:40;;;;;;;16.80;11.68;;;13.60;99.90;;;;;;5044701;28;20041;-79
2021/07/11 01:34:06;;;;;;;15.48;11.45;;;13.50;99.90;;;;;;5044076;28;20116;-78
2021/07/11 01:36:33;;;;;;;14.88;10.93;;;13.40;99.90;;;;;;5039958;28;20041;-79
2021/07/11 01:39:00;;;;;;;;;;;13.40;99.90;;;;;;5044612;28;20037;-79
2021/07/11 01:41:28;;;;;;;15.57;10.93;;;13.40;99.90;;;;;;5048136;28;19925;-79
2021/07/11 01:43:55;;;;;;;15.02;11.00;;;13.40;99.90;;;;;;5026747;28;20103;-79
2021/07/11 01:46:22;;;;;;;17.15;12.13;;;13.40;99.90;;;;;;5039686;28;20112;-80
2021/07/11 01:48:49;;;;;;;18.30;11.80;;;13.40;99.90;;;;;;5037740;28;20423;-79
2021/07/11 01:51:15;;;;;;;20.10;12.35;;;13.50;99.90;;;;;;5034730;28;20041;-79
2021/07/11 01:53:45;;;;;;;18.50;12.35;;;13.50;99.90;;;;;;5044627;28;20498;-79
2021/07/11 01:56:12;;;;;;;19.63;12.52;;;13.50;99.90;;;;;;5035666;28;20041;-79
2021/07/11 01:58:39;;;;;;;18.17;12.68;;;13.60;99.90;;;;;;5031618;28;20033;-79
2021/07/11 02:01:09;;;;;;;16.42;12.38;;;13.60;99.90;;;;;;5041094;28;20099;-80
2021/07/11 02:03:34;;;;;;;17.55;12.10;;;13.60;99.90;;;;;;5052924;28;20037;-79
2021/07/11 02:06:01;;;;;;;19.33;12.73;;;13.70;99.90;;;;;;5036070;28;20048;-79
2021/07/11 02:08:26;;;;;;;;;;;13.70;99.90;;;;;;5043146;28;20038;-79
2021/07/11 02:10:53;;;;;;;19.05;12.43;;;13.70;99.90;;;;;;5034242;28;19978;-79
2021/07/11 02:13:36;;;;;;;19.55;13.13;;;13.70;99.90;;;;;;5052068;28;20152;-80
2021/07/11 02:16:10;;;;;;;18.30;13.40;;;13.60;99.90;;;;;;5039278;28;20045;-79
2021/07/11 02:18:39;;;;;;;18.55;12.93;;;13.60;99.90;;;;;;5039916;28;20041;-79
2021/07/11 02:21:06;;;;;;;20.48;13.57;;;13.50;99.90;;;;;;5042194;28;20383;-78
2021/07/11 02:23:33;;;;;;;17.50;12.48;;;13.50;99.90;;;;;;5038512;28;20438;-78
2021/07/11 02:26:00;;;;;;;17.20;12.45;;;13.40;99.90;;;;;;5028773;28;20033;-78
2021/07/11 02:28:29;;;;;;;19.05;12.93;;;13.40;99.90;;;;;;5024419;28;20489;-79
2021/07/11 02:31:00;;;;;;;18.75;12.85;;;13.30;99.90;;;;;;5021767;28;20530;-79
2021/07/11 02:33:36;;;;;;;21.05;13.77;;;13.30;99.90;;;;;;5039198;28;20116;-79
2021/07/11 02:36:12;;;;;;;17.05;12.35;;;13.20;99.90;;;;;;5043845;28;20033;-79
2021/07/11 02:38:49;;;;;;;17.75;12.95;;;13.20;99.90;;;;;;5037857;28;20036;-79
2021/07/11 02:41:16;;;;;;;19.17;12.55;;;13.10;99.90;;;;;;5044512;28;20037;-79
2021/07/11 02:43:43;;;;;;;17.58;11.85;;;13.10;99.90;;;;;;5042866;28;20034;-79
2021/07/11 02:46:12;;;;;;;16.05;12.18;;;13.10;99.90;;;;;;5028017;28;20403;-79
2021/07/11 02:48:42;;;;;;;17.60;11.93;;;13.00;99.90;;;;;;5032014;28;20033;-79
2021/07/11 02:51:10;;;;;;;20.23;13.68;;;13.00;99.90;;;;;;5035840;28;20376;-79
2021/07/11 02:53:38;;;;;;;21.05;14.27;;;13.00;99.90;;;;;;5030599;28;20060;-79
2021/07/11 02:56:05;;;;;;;19.20;13.27;;;13.00;99.90;;;;;;5049288;28;20079;-79
2021/07/11 02:58:34;;;;;;;22.42;13.93;;;13.00;99.90;;;;;;5027483;28;20125;-79
2021/07/11 03:01:01;;;;;;;19.45;12.00;;;13.10;99.90;;;;;;5029310;28;20032;-79
2021/07/11 03:03:28;;;;;;;18.85;12.80;;;13.10;99.90;;;;;;5043778;28;20072;-78
2021/07/11 03:05:55;;;;;;;21.05;13.25;;;13.10;99.90;;;;;;5037172;28;20123;-78
2021/07/11 03:08:21;;;;;;;20.17;12.80;;;13.20;99.90;;;;;;5031291;28;20041;-78
2021/07/11 03:10:47;;;;;;;;;;;13.20;99.90;;;;;;5023218;28;20045;-79
2021/07/11 03:13:15;;;;;;;19.13;12.83;;;13.20;99.90;;;;;;5052120;28;19966;-78
2021/07/11 03:15:41;;;;;;;18.20;12.45;;;13.20;99.90;;;;;;5032757;28;20034;-76
2021/07/11 03:18:07;;;;;;;18.92;12.77;;;13.20;99.90;;;;;;5039156;28;20080;-78
2021/07/11 03:20:34;;;;;;;20.75;13.23;;;13.20;99.90;;;;;;5043053;28;20453;-78
2021/07/11 03:23:02;;;;;;;20.15;13.20;;;13.20;99.90;;;;;;5038895;28;20076;-77
2021/07/11 03:25:29;;;;;;;17.75;12.68;;;13.20;99.90;;;;;;5023912;28;20159;-77
2021/07/11 03:27:56;;;;;;;20.92;13.20;;;13.20;99.90;;;;;;5032374;28;20041;-78
2021/07/11 03:30:22;;;;;;;19.73;13.00;;;13.20;99.90;;;;;;5024087;28;20399;-77
2021/07/11 03:32:56;;;;;;;19.70;12.63;;;13.20;99.90;;;;;;5015777;28;20045;-77
2021/07/11 03:35:33;;;;;;;20.33;12.70;;;13.10;99.90;;;;;;5042786;28;20040;-77
2021/07/11 03:38:02;;;;;;;19.58;13.15;;;13.10;99.90;;;;;;5045554;28;20064;-77
2021/07/11 03:40:37;;;;;;;19.05;12.50;;;13.10;99.90;;;;;;5041458;28;20041;-77
2021/07/11 03:43:07;;;;;;;19.90;13.10;;;13.10;99.90;;;;;;5038273;28;20037;-77
2021/07/11 03:45:36;;;;;;;18.65;13.60;;;13.10;99.90;;;;;;5040781;28;20045;-78
2021/07/11 03:48:11;;;;;;;21.27;14.40;;;13.20;99.90;;;;;;5023905;28;20068;-78
2021/07/11 03:50:39;;;;;;;21.30;13.45;;;13.30;99.90;;;;;;5045432;28;20037;-78
2021/07/11 03:53:07;;;;;;;19.73;13.23;;;13.30;99.90;;;;;;5042586;28;20458;-78
2021/07/11 03:55:35;;;;;;;19.98;13.27;;;13.40;99.90;;;;;;5042249;28;20437;-77
2021/07/11 03:58:02;;;;;;;21.10;13.60;;;13.40;99.90;;;;;;5046257;28;21120;-78
2021/07/11 04:00:29;;;;;;;18.95;13.18;;;13.40;99.90;;;;;;5044321;28;20041;-78
2021/07/11 04:02:57;;;;;;;18.25;11.63;;;13.40;99.90;;;;;;5027686;28;20038;-77
2021/07/11 04:05:30;;;;;;;19.95;13.20;;;13.40;99.90;;;;;;5038310;28;20037;-78
2021/07/11 04:07:57;;;;;;;19.23;12.60;;;13.40;99.90;;;;;;5037115;28;20037;-79
2021/07/11 04:10:28;;;;;;;19.15;12.90;;;13.50;99.90;;;;;;5037660;28;20083;-78
2021/07/11 04:12:56;;;;;;;20.77;12.65;;;13.50;99.90;;;;;;5032960;28;20065;-78
2021/07/11 04:15:22;;;;;;;17.88;12.73;;;13.50;99.90;;;;;;5037228;28;20136;-78
2021/07/11 04:17:50;;;;;;;18.90;12.05;;;13.60;99.90;;;;;;5043282;28;20117;-78
2021/07/11 04:20:19;;;;;;;20.75;13.52;;;13.60;99.90;;;;;;5036875;28;20271;-78
2021/07/11 04:22:48;;;;;;;21.55;14.07;;;13.70;99.90;;;;;;5040600;28;20591;-79
2021/07/11 04:25:15;;;;;;;19.50;13.40;;;13.70;99.90;;;;;;5039503;28;20437;-77
2021/07/11 04:27:42;;;;;;;21.40;14.10;;;13.80;99.90;;;;;;5043835;28;20041;-78
2021/07/11 04:30:09;;;;;;;19.33;13.25;;;14.00;99.90;;;;;;5020451;28;20597;-78
2021/07/11 04:32:36;;;;;;;20.40;13.40;;;14.20;99.90;;;;;;5041035;28;20171;-78
2021/07/11 04:35:04;;;;;;;18.40;12.95;;;14.30;99.90;;;;;;5027185;28;20040;-78
2021/07/11 04:37:29;;;;;;;18.08;12.70;;;14.40;99.90;;;;;;5049531;28;20036;-78
2021/07/11 04:39:55;;;;;;;20.38;14.00;;;14.40;99.90;;;;;;5037808;28;20049;-78
2021/07/11 04:42:22;;;;;;;20.05;13.68;;;14.50;99.90;;;;;;5050754;28;20135;-78
2021/07/11 04:44:48;;;;;;;21.33;12.77;;;14.60;99.90;;;;;;5048880;28;20040;-78
2021/07/11 04:47:14;;;;;;;20.02;12.95;;;14.70;99.90;;;;;;5051161;28;20482;-78
2021/07/11 04:49:40;;;;;;;;;;;14.70;99.90;;;;;;5038413;28;20041;-78
2021/07/11 04:52:06;;;;;;;16.92;12.45;;;14.80;99.90;;;;;;5036613;28;19947;-78
2021/07/11 04:54:34;;;;;;;17.55;12.85;;;14.90;99.90;;;;;;5034716;28;20045;-78
2021/07/11 04:57:00;;;;;;;16.63;12.65;;;14.90;99.90;;;;;;5031268;28;20111;-78
2021/07/11 04:59:26;;;;;;;;;;;15.00;99.90;;;;;;5037775;28;20460;-78
2021/07/11 05:01:51;;;;;;;18.35;12.55;;;15.10;99.90;;;;;;5054909;28;20007;-78
2021/07/11 05:04:17;;;;;;;;;;;15.20;99.90;;;;;;5043596;28;20025;-78
2021/07/11 05:06:43;;;;;;;17.15;11.93;;;15.20;99.90;;;;;;5045965;28;20003;-79
2021/07/11 05:09:09;;;;;;;15.75;11.50;;;15.30;99.90;;;;;;5016339;28;20034;-79
2021/07/11 05:11:35;;;;;;;;;;;15.40;99.90;;;;;;5034733;28;20041;-79
2021/07/11 05:14:01;;;;;;;17.13;12.07;;;15.50;99.90;;;;;;5002461;28;19963;-78
2021/07/11 05:16:27;;;;;;;;;;;15.60;99.90;;;;;;5046659;28;20049;-78
2021/07/11 05:18:53;;;;;;;17.20;12.13;;;15.60;99.90;;;;;;5041155;28;19924;-78
2021/07/11 05:21:19;;;;;;;17.25;11.88;;;15.70;99.90;;;;;;5029629;28;20463;-78
2021/07/11 05:23:45;;;;;;;17.08;12.23;;;15.80;99.90;;;;;;5034823;28;20061;-78
2021/07/11 05:26:11;;;;;;;18.33;11.85;;;15.80;99.90;;;;;;5046199;28;20049;-79
2021/07/11 05:28:39;;;;;;;16.35;12.02;;;15.90;99.90;;;;;;5042160;28;20041;-78
2021/07/11 05:31:07;;;;;;;18.25;12.10;;;15.90;99.90;;;;;;5040581;28;20046;-78
2021/07/11 05:33:33;;;;;;;16.38;12.15;;;16.00;99.90;;;;;;5035328;28;20056;-78
2021/07/11 05:35:59;;;;;;;17.85;11.82;;;16.00;99.90;;;;;;5035980;28;20040;-79
2021/07/11 05:38:26;;;;;;;17.65;12.20;;;16.10;99.90;;;;;;5051983;28;20037;-78
2021/07/11 05:40:51;;;;;;;;;;;16.10;99.90;;;;;;5045238;28;20127;-78
2021/07/11 05:43:19;;;;;;;15.10;10.73;;;16.10;99.90;;;;;;5048990;28;19920;-78
2021/07/11 05:45:45;;;;;;;16.23;10.48;;;16.20;99.90;;;;;;5055215;28;20467;-78
2021/07/11 05:48:12;;;;;;;15.93;11.70;;;16.20;99.90;;;;;;5051269;28;20037;-78
2021/07/11 05:50:38;;;;;;;15.20;10.80;;;16.30;99.90;;;;;;5046420;28;20129;-78
2021/07/11 05:53:04;;;;;;;17.55;12.63;;;16.40;99.90;;;;;;5032691;28;20128;-78
2021/07/11 05:55:29;;;;;;;;;;;16.40;99.90;;;;;;5029371;28;20094;-79
2021/07/11 05:57:55;;;;;;;16.85;12.23;;;16.40;99.90;;;;;;5037923;28;19924;-78
2021/07/11 06:00:21;;;;;;;;;;;16.50;99.90;;;;;;5042983;28;20466;-78
2021/07/11 06:02:46;;;;;;;18.77;11.48;;;16.60;99.90;;;;;;5017468;28;20378;-81
2021/07/11 06:05:12;;;;;;;;;;;16.60;99.90;;;;;;5051350;28;20045;-79
2021/07/11 06:07:38;;;;;;;15.70;12.00;;;16.70;99.90;;;;;;5033340;28;19921;-77
2021/07/11 06:10:05;;;;;;;;;;;16.80;99.90;;;;;;5053346;28;20514;-77
2021/07/11 06:12:31;;;;;;;15.52;10.88;;;16.90;99.90;;;;;;5031420;28;19921;-76
2021/07/11 06:14:56;;;;;;;;;;;17.10;99.90;;;;;;5026013;28;20044;-79
2021/07/11 06:17:22;;;;;;;13.50;9.82;;;17.10;99.90;;;;;;5041730;28;19924;-77
2021/07/11 06:19:48;;;;;;;13.90;10.38;;;17.20;99.90;;;;;;5040921;28;20091;-78
2021/07/11 06:22:14;;;;;;;13.25;9.13;;;17.30;99.90;;;;;;5036901;28;20112;-79
2021/07/11 06:24:40;;;;;;;;;;;17.30;99.90;;;;;;5022416;28;20037;-78
2021/07/11 06:27:06;;;;;;;12.70;9.52;;;17.40;99.90;;;;;;5035531;28;20548;-79
2021/07/11 06:29:32;;;;;;;;;;;17.40;99.90;;;;;;5041117;28;20095;-78
2021/07/11 06:31:58;;;;;;;12.63;9.15;;;17.50;99.90;;;;;;5033406;28;19956;-78
2021/07/11 06:34:23;;;;;;;;;;;17.60;99.90;;;;;;5023007;28;20098;-78
2021/07/11 06:36:49;;;;;;;12.20;8.32;;;17.70;99.90;;;;;;5050912;28;19916;-79
2021/07/11 06:39:15;;;;;;;;;;;17.80;99.90;;;;;;5030540;28;20037;-78
2021/07/11 06:41:40;;;;;;;10.80;8.20;;;17.90;99.90;;;;;;5051609;28;19920;-79
2021/07/11 06:44:08;;;;;;;11.02;8.63;;;18.00;99.90;;;;;;5043547;28;20052;-81
2021/07/11 06:46:33;;;;;;;;;;;18.10;99.90;;;;;;5046084;28;20028;-79
2021/07/11 06:48:59;;;;;;;13.65;8.05;;;18.20;99.90;;;;;;5043791;28;19917;-77
2021/07/11 06:51:25;;;;;;;;;;;18.20;99.90;;;;;;5038795;28;20479;-78
2021/07/11 06:53:50;;;;;;;12.93;8.48;;;18.20;99.90;;;;;;5030928;28;19917;-76
2021/07/11 06:56:16;;;;;;;;;;;18.30;99.90;;;;;;5043731;28;20124;-79
2021/07/11 06:58:42;;;;;;;9.98;7.60;;;18.30;99.90;;;;;;5031915;28;20314;-79
2021/07/11 07:01:08;;;;;;;;;;;18.40;99.90;;;;;;5009126;28;20052;-78
2021/07/11 07:03:33;;;;;;;11.55;8.40;;;18.40;99.90;;;;;;5031891;28;20324;-78
2021/07/11 07:05:59;;;;;;;;;;;18.50;99.90;;;;;;5042298;28;20064;-78
2021/07/11 07:08:25;;;;;;;10.05;8.55;;;18.60;99.90;;;;;;5021589;28;19977;-77
2021/07/11 07:10:52;;;;;;;11.20;8.10;;;18.70;99.90;;;;;;5040667;28;20410;-77
2021/07/11 07:13:20;;;;;;;10.23;7.75;;;18.80;99.90;;;;;;5034943;28;20034;-78
2021/07/11 07:15:47;;;;;;;10.90;8.02;;;18.90;99.90;;;;;;5042583;28;20050;-77
2021/07/11 07:18:13;;;;;;;10.55;7.80;;;18.90;99.90;;;;;;5041737;28;20033;-77
2021/07/11 07:20:39;;;;;;;11.70;8.55;;;19.10;99.90;;;;;;5034355;28;20048;-78
2021/07/11 07:23:05;;;;;;;10.15;8.25;;;19.10;99.90;;;;;;5027552;28;20033;-77
2021/07/11 07:25:30;;;;;;;;;;;19.20;99.90;;;;;;5047843;28;20463;-78
2021/07/11 07:27:56;;;;;;;10.55;7.90;;;19.30;99.90;;;;;;5024979;28;19921;-80
2021/07/11 07:30:22;;;;;;;;;;;19.50;99.90;;;;;;5044981;28;20103;-78
2021/07/11 07:32:49;;;;;;;9.98;7.93;;;19.60;99.90;;;;;;5047509;28;19927;-79
2021/07/11 07:35:17;;;;;;;9.48;7.78;;;19.70;99.90;;;;;;5048581;28;20414;-80
2021/07/11 07:37:45;;;;;;;10.13;8.18;;;19.90;99.90;;;;;;5024162;28;20041;-77
2021/07/11 07:40:11;;;;;;;11.73;8.40;;;20.00;99.90;;;;;;5047727;28;20081;-79
2021/07/11 07:42:37;;;;;;;10.77;8.05;;;20.20;99.90;;;;;;5029339;28;20056;-78
2021/07/11 07:45:04;;;;;;;8.55;7.00;;;20.20;99.90;;;;;;5049335;28;20052;-79
2021/07/11 07:47:30;;;;;;;9.48;6.93;;;20.30;99.90;;;;;;5012722;28;20025;-78
2021/07/11 07:49:56;;;;;;;9.35;7.55;;;20.40;99.90;;;;;;5041319;28;20036;-78
2021/07/11 07:52:22;;;;;;;;;;;20.50;99.90;;;;;;5050598;28;20040;-78
2021/07/11 07:54:48;;;;;;;9.60;7.38;;;20.50;99.90;;;;;;5048848;28;19928;-78
2021/07/11 07:57:15;;;;;;;12.30;7.53;;;20.60;99.90;;;;;;5051759;28;20033;-79
2021/07/11 07:59:42;;;;;;;9.77;6.97;;;20.70;99.90;;;;;;5046472;28;20041;-78
2021/07/11 08:02:08;;;;;;;9.48;6.97;;;20.80;99.90;;;;;;5053917;28;20041;-79
2021/07/11 08:04:34;;;;;;;10.55;7.28;;;20.90;99.90;;;;;;5051769;28;20045;-79
2021/07/11 08:06:59;;;;;;;10.98;7.30;;;21.00;99.90;;;;;;5047997;28;20037;-79
2021/07/11 08:09:25;;;;;;;11.57;7.63;;;21.10;99.90;;;;;;5020861;28;20509;-79
2021/07/11 08:11:51;;;;;;;9.68;7.38;;;21.10;99.90;;;;;;5029783;28;20052;-79
2021/07/11 08:14:17;;;;;;;9.45;6.93;;;21.20;99.90;;;;;;5049972;28;20155;-79
2021/07/11 08:16:43;;;;;;;10.27;6.75;;;21.30;99.90;;;;;;5038479;28;20116;-80
2021/07/11 08:19:10;;;;;;;8.55;7.32;;;21.30;99.90;;;;;;5041231;28;20055;-79
2021/07/11 08:21:35;;;;;;;11.25;7.10;;;21.30;99.90;;;;;;5047511;28;20041;-79
2021/07/11 08:24:01;;;;;;;10.65;7.80;;;21.40;99.90;;;;;;5043162;28;20466;-80
2021/07/11 08:26:27;;;;;;;9.05;7.30;;;21.40;99.90;;;;;;5043443;28;20033;-79
2021/07/11 08:28:53;;;;;;;10.02;7.28;;;21.40;99.90;;;;;;5036922;28;20489;-80
2021/07/11 08:31:19;;;;;;;11.82;8.90;;;21.40;99.90;;;;;;5020276;28;20037;-78
2021/07/11 08:33:45;;;;;;;10.27;8.32;;;21.40;99.90;;;;;;5049511;28;20037;-79
2021/07/11 08:36:11;;;;;;;10.40;8.45;;;21.50;99.90;;;;;;5047621;28;20064;-78
2021/07/11 08:38:37;;;;;;;11.25;8.73;;;21.50;99.90;;;;;;5028592;28;20060;-78
2021/07/11 08:41:03;;;;;;;10.80;8.57;;;21.50;99.90;;;;;;5050770;28;20120;-78
2021/07/11 08:43:29;;;;;;;11.93;8.90;;;21.60;99.90;;;;;;5048675;28;20489;-79
2021/07/11 08:45:55;;;;;;;10.95;8.73;;;21.70;99.90;;;;;;5051019;28;20389;-79
2021/07/11 08:48:21;;;;;;;11.48;8.13;;;21.70;99.90;;;;;;5046625;28;20037;-79
2021/07/11 08:50:47;;;;;;;12.52;8.40;;;21.80;99.90;;;;;;5043086;28;20056;-79
2021/07/11 08:53:14;;;;;;;11.05;8.70;;;22.10;99.90;;;;;;5043105;28;20029;-78
2021/07/11 08:55:42;;;;;;;10.13;8.05;;;22.40;99.90;;;;;;5052839;28;20029;-79
2021/07/11 08:58:09;;;;;;;9.40;8.02;;;22.80;99.90;;;;;;5033565;28;20076;-78
2021/07/11 09:00:37;;;;;;;10.38;8.52;;;23.10;99.90;;;;;;5059091;28;20083;-79
2021/07/11 09:03:05;;;;;;;11.95;8.43;;;23.30;99.90;;;;;;5051237;28;20033;-78
2021/07/11 09:05:33;;;;;;;10.35;7.95;;;23.50;99.90;;;;;;5047369;28;20071;-76
2021/07/11 09:08:08;;;;;;;9.70;8.43;;;23.60;99.90;;;;;;5051589;28;20075;-81
2021/07/11 09:10:40;;;;;;;10.77;8.27;;;23.80;99.90;;;;;;5028063;28;20041;-81
2021/07/11 09:13:11;;;;;;;10.35;7.93;;;23.90;99.90;;;;;;5043164;28;20059;-81
2021/07/11 09:15:38;;;;;;;10.65;8.25;;;24.00;99.90;;;;;;5029535;28;20045;-81
2021/07/11 09:18:04;;;;;;;10.23;8.40;;;24.10;99.90;;;;;;5048494;28;20032;-80
2021/07/11 09:20:31;;;;;;;9.98;8.05;;;24.30;99.90;;;;;;5046038;28;20698;-77
2021/07/11 09:23:02;;;;;;;9.98;7.78;;;24.40;99.90;;;;;;5019357;28;20494;-81
2021/07/11 09:25:29;;;;;;;9.90;8.18;;;24.40;99.90;;;;;;5053720;28;20037;-81
2021/07/11 09:27:56;;;;;;;10.23;8.32;;;24.40;99.90;;;;;;5029178;28;20036;-80
2021/07/11 09:30:22;;;;;;;10.43;7.82;;;24.30;99.90;;;;;;5047289;28;20039;-80
2021/07/11 09:32:55;;;;;;;10.15;8.30;;;24.20;99.90;;;;;;5032189;28;20037;-80
2021/07/11 09:35:23;;;;;;;8.77;7.25;;;24.10;99.90;;;;;;5051426;28;20040;-79
2021/07/11 09:37:52;;;;;;;9.00;7.47;;;24.10;99.90;;;;;;5050218;28;20048;-78
2021/07/11 09:40:20;;;;;;;11.50;7.82;;;24.20;99.90;;;;;;5043211;28;20048;-78
2021/07/11 09:42:49;;;;;;;8.35;7.47;;;24.40;99.90;;;;;;5018350;28;20033;-78
2021/07/11 09:45:22;;;;;;;10.65;7.45;;;24.40;99.90;;;;;;5032483;28;20029;-80
2021/07/11 09:47:50;;;;;;;10.43;7.50;;;24.40;99.90;;;;;;5038741;28;21209;-80
2021/07/11 09:50:23;;;;;;;9.48;7.38;;;24.30;99.90;;;;;;5046860;28;20043;-82
2021/07/11 09:52:54;;;;;;;8.77;7.30;;;24.50;99.90;;;;;;5043376;28;20040;-78
2021/07/11 09:55:26;;;;;;;8.60;7.70;;;24.60;99.90;;;;;;5049808;28;20033;-82
2021/07/11 09:57:52;;;;;;;9.80;8.27;;;24.80;99.90;;;;;;5048333;28;20044;-82
2021/07/11 10:00:23;;;;;;;9.50;7.78;;;24.90;99.90;;;;;;5029607;28;20033;-80
2021/07/11 10:02:52;;;;;;;9.38;7.53;;;25.00;99.90;;;;;;5050546;28;20095;-80
2021/07/11 10:05:19;;;;;;;9.50;7.20;;;25.00;99.90;;;;;;5048813;28;20049;-84
2021/07/11 10:07:46;;;;;;;8.75;6.75;;;25.10;99.90;;;;;;5048575;28;20076;-77
2021/07/11 10:10:15;;;;;;;9.05;7.05;;;25.20;99.90;;;;;;5023139;28;20087;-81
2021/07/11 10:12:41;;;;;;;10.23;7.70;;;25.40;99.90;;;;;;5038856;28;20100;-80
2021/07/11 10:15:12;;;;;;;10.10;7.80;;;25.40;99.90;;;;;;5056111;28;20063;-79
2021/07/11 10:18:06;;;;;;;7.97;6.65;;;25.40;99.90;;;;;;5052139;28;20060;-81
2021/07/11 10:20:40;;;;;;;9.05;6.72;;;25.60;99.90;;;;;;5038975;28;20478;-81
2021/07/11 10:23:09;;;;;;;8.75;7.13;;;25.70;99.90;;;;;;5042694;28;20036;-79
2021/07/11 10:25:37;;;;;;;7.75;6.93;;;25.70;99.90;;;;;;5049618;28;20064;-79
2021/07/11 10:28:11;;;;;;;8.27;6.30;;;25.80;99.90;;;;;;5052528;28;20064;-79
2021/07/11 10:30:43;;;;;;;8.57;6.70;;;25.80;99.90;;;;;;5043564;28;20040;-79
2021/07/11 10:33:14;;;;;;;8.40;6.93;;;26.00;99.90;;;;;;5045363;28;20045;-76
2021/07/11 10:35:54;;;;;;;8.15;6.57;;;26.20;99.20;;;;;;5033445;28;20033;-76
2021/07/11 10:38:47;;;;;;;9.32;7.22;;;26.30;98.90;;;;;;5028475;28;20040;-82
2021/07/11 10:41:20;;;;;;;8.07;6.97;;;26.20;99.10;;;;;;5049553;28;20044;-78
2021/07/11 10:44:08;;;;;;;8.40;7.18;;;25.80;99.00;;;;;;5049568;28;20036;-79
2021/07/11 10:46:45;;;;;;;7.10;6.00;;;25.70;99.80;;;;;;5031820;28;20378;-79
2021/07/11 10:49:32;;;;;;;7.72;6.53;;;25.70;99.90;;;;;;5044350;28;20456;-82
2021/07/11 10:52:08;;;;;;;8.68;6.75;;;25.90;99.90;;;;;;5031371;28;20049;-79
2021/07/11 10:54:52;;;;;;;7.18;6.38;;;26.10;98.40;;;;;;5051460;28;20036;-80
2021/07/11 10:57:33;;;;;;;7.07;6.38;;;26.20;97.30;;;;;;5023529;28;20093;-81
2021/07/11 11:00:08;;;;;;;8.32;6.25;;;26.10;97.40;;;;;;5046005;28;20439;-81
2021/07/11 11:02:34;;;;;;;8.52;6.75;;;26.10;99.00;;;;;;5037830;28;20049;-79
2021/07/11 11:05:04;;;;;;;8.75;6.85;;;26.30;97.70;;;;;;5046363;28;20048;-79
2021/07/11 11:07:50;;;;;;;8.48;6.80;;;26.20;97.00;;;;;;5042152;28;20576;-82
2021/07/11 11:10:31;;;;;;;8.85;6.65;;;26.40;97.70;;;;;;5023732;28;20116;-81
2021/07/11 11:13:10;;;;;;;8.43;7.13;;;26.60;97.90;;;;;;5031400;28;20045;-78
2021/07/11 11:15:40;;;;;;;12.68;7.00;;;26.80;97.20;;;;;;5047984;28;20037;-79
2021/07/11 11:18:20;;;;;;;8.02;6.68;;;26.70;96.70;;;;;;5033565;28;20144;-80
2021/07/11 11:21:11;;;;;;;7.60;6.80;;;26.50;96.90;;;;;;5028593;28;20060;-81
2021/07/11 11:23:57;;;;;;;8.43;6.70;;;26.50;97.60;;;;;;5040576;28;20449;-83
2021/07/11 11:26:28;;;;;;;8.13;6.85;;;26.70;97.30;;;;;;5026149;28;20048;-80
2021/07/11 11:28:56;;;;;;;8.63;6.78;;;26.80;96.90;;;;;;5013124;28;20064;-83
2021/07/11 11:31:41;;;;;;;10.30;6.80;;;26.90;96.70;;;;;;4992895;28;20474;-82
2021/07/11 11:34:09;;;;;;;10.32;6.68;;;26.90;96.40;;;;;;5013074;28;20112;-81
2021/07/11 11:36:39;;;;;;;8.90;6.40;;;27.10;96.80;;;;;;5056586;28;20119;-82
2021/07/11 11:39:28;;;;;;;8.13;6.10;;;26.90;96.60;;;;;;5050214;28;20029;-79
2021/07/11 11:41:55;;;;;;;8.73;6.63;;;26.80;97.40;;;;;;5058098;28;20045;-80
2021/07/11 11:44:26;;;;;;;9.55;6.60;;;26.40;97.40;;;;;;5049016;28;20036;-85
2021/07/11 11:46:55;;;;;;;8.73;5.72;;;26.10;97.30;;;;;;5031763;28;20033;-79
2021/07/11 11:49:32;;;;;;;7.22;6.07;;;25.70;99.00;;;;;;5025012;28;20095;-80
2021/07/11 11:52:08;;;;;;;8.52;6.57;;;25.70;99.90;;;;;;5039250;28;20041;-80
2021/07/11 11:54:42;;;;;;;7.80;6.18;;;25.40;99.90;;;;;;5040407;28;20052;-82
2021/07/11 11:57:17;;;;;;;7.38;5.93;;;25.20;99.90;;;;;;5031638;28;20036;-80
2021/07/11 11:59:49;;;;;;;8.55;6.50;;;25.40;99.90;;;;;;5019794;28;20045;-79
2021/07/11 12:02:20;;;;;;;8.05;7.00;;;24.30;99.90;;;;;;5046363;28;20045;-80
2021/07/11 12:04:49;;;;;;;12.05;6.88;;;24.40;99.90;;;;;;5037726;28;20045;-80
2021/07/11 12:07:22;;;;;;;7.72;6.80;;;24.30;99.90;;;;;;5041474;28;20059;-80
2021/07/11 12:10:00;;;;;;;9.45;6.80;;;24.20;99.90;;;;;;5013466;28;20429;-80
2021/07/11 12:12:52;;;;;;;12.90;7.38;;;24.00;99.90;;;;;;5023788;28;20051;-79
2021/07/11 12:15:29;;;;;;;11.10;7.15;;;23.80;99.90;;;;;;5048031;28;20048;-79
2021/07/11 12:18:06;;;;;;;9.05;6.32;;;23.50;99.90;;;;;;5032925;28;20063;-77
2021/07/11 12:20:34;;;;;;;9.43;7.25;;;23.30;99.90;;;;;;5051296;28;20055;-76
2021/07/11 12:23:08;;;;;;;8.40;7.28;;;23.10;99.90;;;;;;5050559;28;20040;-76
2021/07/11 12:25:37;;;;;;;9.75;7.82;;;23.00;99.90;;;;;;5046948;28;20033;-77
2021/07/11 12:28:03;;;;;;;8.93;6.95;;;23.00;99.90;;;;;;5050424;28;20034;-77
2021/07/11 12:30:38;;;;;;;8.55;6.78;;;23.00;99.90;;;;;;5060958;28;20032;-76
2021/07/11 12:33:07;;;;;;;9.38;6.68;;;22.90;99.90;;;;;;5051264;28;20176;-77
2021/07/11 12:35:45;;;;;;;9.13;7.25;;;22.90;99.90;;;;;;5026351;28;20116;-77
2021/07/11 12:38:12;;;;;;;7.85;6.18;;;23.00;99.90;;;;;;5044500;28;20029;-78
2021/07/11 12:40:39;;;;;;;7.93;6.35;;;23.10;99.90;;;;;;5045854;28;20127;-77
2021/07/11 12:43:08;;;;;;;8.60;6.03;;;23.10;99.90;;;;;;5050396;28;20392;-76
2021/07/11 12:45:36;;;;;;;8.00;6.00;;;23.20;99.90;;;;;;5050593;28;20038;-76
2021/07/11 12:48:03;;;;;;;9.18;6.03;;;23.30;99.90;;;;;;5037638;28;20156;-77
2021/07/11 12:50:39;;;;;;;9.65;6.28;;;23.40;99.90;;;;;;5048910;28;20044;-77